Nyk Deneb — 3EOF8 — position and weather

sailwx.info

Track history (hours):
 
Tides and Currents Weather Stations Pressure Air Temp Water Temp Dewpoint Dewpoint Depression Visibility Wind Speed Wind Dir Waves Ship Positions

Nyk Deneb

Last reported at 2015-Jun-19 15:30 UTC. Time now 2015-Jun-30 08:18 UTC.
Position N 31°56' W 080°27'.
Warning: this ship's position is 10 days out of date.

Length 294 m; draft 11.5 m.

Type: Ship (hazmat cat B). MMSI: 355717000.

Date/timePositionNaut miles runAvg speedWind from/ knotsBaromVisibWave heightAir tempDewpointWater temp
2015-Jun-19 15:30N 31°56' W 080°27'1313.6
2015-Jun-19 14:33N 31°58' W 080°42'1111.3
2015-Jun-19 13:33N 32°02' W 080°54'8 7.7
2015-Jun-19 12:33N 32°05' W 081°03'5 4.8
2015-Jun-19 11:33N 32°07' W 081°08'0 0.4
2015-Jun-19 10:33N 32°08' W 081°08'0 0.0
2015-Jun-19 06:12N 32°08' W 081°08'0 0.0
2015-Jun-19 05:33N 32°08' W 081°08'0 0.0
2015-Jun-19 03:33N 32°08' W 081°08'0 0.0
2015-Jun-19 02:24N 32°08' W 081°08'0 0.0
2015-Jun-18 21:33N 32°08' W 081°08'0 0.0
2015-Jun-18 20:33N 32°08' W 081°08'0 0.0
2015-Jun-18 19:30N 32°08' W 081°08'0 0.0
2015-Jun-18 18:33N 32°08' W 081°08'0 0.0
2015-Jun-18 17:33N 32°08' W 081°08'0 0.0
2015-Jun-18 16:33N 32°08' W 081°08'0 0.0
2015-Jun-18 15:33N 32°08' W 081°08'0 0.1
2015-Jun-18 14:33N 32°08' W 081°08'6 6.1
2015-Jun-18 13:33N 32°05' W 081°01'1211.7
2015-Jun-18 12:33N 32°01' W 080°49'1211.9
2015-Jun-18 11:33N 31°56' W 080°36'1010.0
2015-Jun-18 10:33N 31°56' W 080°24'1313.1
2015-Jun-18 09:33N 31°56' W 080°09'1313.0
2015-Jun-18 08:33N 31°59' W 079°54'1413.8
2015-Jun-18 07:33N 32°06' W 079°40'1413.7
2015-Jun-18 06:33N 32°14' W 079°26'1413.6
2015-Jun-18 05:33N 32°21' W 079°12'1413.6
2015-Jun-18 04:33N 32°28' W 078°59'1313.3
2015-Jun-18 03:33N 32°35' W 078°46'1313.4
2015-Jun-18 02:33N 32°43' W 078°33'1313.1
2015-Jun-18 01:33N 32°50' W 078°20'3013.3
2015-Jun-17 23:20N 33°07' W 077°50'10815.4
2015-Jun-17 16:18N 34°14' W 076°08'1620.0
2015-Jun-17 15:30N 34°24' W 075°53'1918.9
2015-Jun-17 14:29N 34°36' W 075°35'1617.5
2015-Jun-17 13:33N 34°47' W 075°20'138 4.9
2015-Jun-16 09:08N 36°56' W 076°20'57 2.9
2015-Jun-15 13:33N 37°08' W 075°10'1312.9
2015-Jun-15 12:33N 37°18' W 075°01'1413.0
2015-Jun-15 11:30N 37°30' W 074°51'3213.1
2015-Jun-15 09:03N 37°57' W 074°28'713.2
2015-Jun-15 08:31N 38°03' W 074°24'3013.2
2015-Jun-15 06:17N 38°30' W 074°11'1213.4
2015-Jun-15 05:23N 38°42' W 074°06'1313.4
2015-Jun-15 04:27N 38°53' W 074°00'1213.2
2015-Jun-15 03:33N 39°05' W 073°56'1413.4
2015-Jun-15 02:32N 39°18' W 073°55'1313.4
2015-Jun-15 01:33N 39°31' W 073°54'1313.1
2015-Jun-15 00:33N 39°45' W 073°53'1313.0
2015-Jun-14 23:33N 39°58' W 073°51'1312.8
2015-Jun-14 22:33N 40°10' W 073°50'1312.9
2015-Jun-14 21:33N 40°23' W 073°49'1010.4
2015-Jun-14 20:33N 40°31' W 073°58'10 9.9
2015-Jun-14 19:33N 40°39' W 074°05'4 4.2
2015-Jun-14 18:33N 40°39' W 074°11'1 0.5
2015-Jun-14 17:29N 40°39' W 074°11'0 0.0
2015-Jun-14 16:32N 40°39' W 074°11'0 0.0
2015-Jun-14 15:32N 40°39' W 074°11'0 0.0
2015-Jun-14 14:32N 40°39' W 074°11'0 0.0
2015-Jun-14 13:32N 40°39' W 074°11'0 0.0
2015-Jun-14 12:32N 40°39' W 074°11'0 0.0
2015-Jun-14 11:29N 40°39' W 074°11'0 0.0
2015-Jun-14 10:32N 40°39' W 074°11'0 0.0
2015-Jun-14 09:32N 40°39' W 074°11'0 0.0
2015-Jun-14 08:32N 40°39' W 074°11'0 0.0
2015-Jun-14 07:32N 40°39' W 074°11'0 0.0
2015-Jun-14 06:32N 40°39' W 074°11'0 0.0
2015-Jun-14 05:32N 40°39' W 074°11'0 0.0
2015-Jun-14 04:32N 40°39' W 074°11'0 0.0
2015-Jun-14 03:32N 40°39' W 074°11'0 0.0
2015-Jun-14 02:32N 40°39' W 074°11'0 0.0
2015-Jun-14 01:29N 40°39' W 074°11'0 0.0
2015-Jun-14 00:32N 40°39' W 074°11'0 0.0
2015-Jun-13 23:32N 40°39' W 074°11'0 0.0
2015-Jun-13 22:32N 40°39' W 074°11'0 0.0
2015-Jun-13 21:32N 40°39' W 074°11'0 0.1
2015-Jun-13 20:34N 40°39' W 074°11'5 5.5
2015-Jun-13 19:33N 40°39' W 074°04'10 9.8
2015-Jun-13 18:33N 40°30' W 073°58'10 9.8
2015-Jun-13 17:33N 40°25' W 073°47'9 9.1
2015-Jun-13 16:32N 40°15' W 073°45'1512.5
2015-Jun-13 15:17N 40°00' W 073°43'912.3
2015-Jun-13 14:33N 39°51' W 073°42'1312.2
2015-Jun-13 13:31N 39°38' W 073°41'1212.2
2015-Jun-13 12:31N 39°26' W 073°40'1111.4
2015-Jun-13 11:33N 39°15' W 073°40'0 0.5
2015-Jun-13 10:33N 39°15' W 073°40'1 0.7
2015-Jun-13 09:33N 39°14' W 073°40'3 3.0
2015-Jun-13 08:32N 39°11' W 073°40'1312.6
2015-Jun-13 07:30N 38°58' W 073°39'1512.6
2015-Jun-13 06:17N 38°43' W 073°39'912.6
2015-Jun-13 05:33N 38°34' W 073°39'1312.8
2015-Jun-13 04:32N 38°21' W 073°39'1812.5
2015-Jun-13 03:04N 38°02' W 073°38'  
Track history (hours):
 
Tides and Currents Weather Stations Pressure Air Temp Water Temp Dewpoint Dewpoint Depression Visibility Wind Speed Wind Dir Waves Ship Positions

Nyk Deneb

Last reported at 2015-Jun-19 15:30 UTC. Time now 2015-Jun-30 08:18 UTC.
Position N 31°56' W 080°27'.
Warning: this ship's position is 10 days out of date.

Length 294 m; draft 11.5 m.

Type: Ship (hazmat cat B). MMSI: 355717000.

Date/timePositionNaut miles runAvg speedWind from/ knotsBaromVisibWave heightAir tempDewpointWater temp
2015-Jun-19 15:30N 31°56' W 080°27'1313.6
2015-Jun-19 14:33N 31°58' W 080°42'1111.3
2015-Jun-19 13:33N 32°02' W 080°54'8 7.7
2015-Jun-19 12:33N 32°05' W 081°03'5 4.8
2015-Jun-19 11:33N 32°07' W 081°08'0 0.4
2015-Jun-19 10:33N 32°08' W 081°08'0 0.0
2015-Jun-19 06:12N 32°08' W 081°08'0 0.0
2015-Jun-19 05:33N 32°08' W 081°08'0 0.0
2015-Jun-19 03:33N 32°08' W 081°08'0 0.0
2015-Jun-19 02:24N 32°08' W 081°08'0 0.0
2015-Jun-18 21:33N 32°08' W 081°08'0 0.0
2015-Jun-18 20:33N 32°08' W 081°08'0 0.0
2015-Jun-18 19:30N 32°08' W 081°08'0 0.0
2015-Jun-18 18:33N 32°08' W 081°08'0 0.0
2015-Jun-18 17:33N 32°08' W 081°08'0 0.0
2015-Jun-18 16:33N 32°08' W 081°08'0 0.0
2015-Jun-18 15:33N 32°08' W 081°08'0 0.1
2015-Jun-18 14:33N 32°08' W 081°08'6 6.1
2015-Jun-18 13:33N 32°05' W 081°01'1211.7
2015-Jun-18 12:33N 32°01' W 080°49'1211.9
2015-Jun-18 11:33N 31°56' W 080°36'1010.0
2015-Jun-18 10:33N 31°56' W 080°24'1313.1
2015-Jun-18 09:33N 31°56' W 080°09'1313.0
2015-Jun-18 08:33N 31°59' W 079°54'1413.8
2015-Jun-18 07:33N 32°06' W 079°40'1413.7
2015-Jun-18 06:33N 32°14' W 079°26'1413.6
2015-Jun-18 05:33N 32°21' W 079°12'1413.6
2015-Jun-18 04:33N 32°28' W 078°59'1313.3
2015-Jun-18 03:33N 32°35' W 078°46'1313.4
2015-Jun-18 02:33N 32°43' W 078°33'1313.1
2015-Jun-18 01:33N 32°50' W 078°20'3013.3
2015-Jun-17 23:20N 33°07' W 077°50'10815.4
2015-Jun-17 16:18N 34°14' W 076°08'1620.0
2015-Jun-17 15:30N 34°24' W 075°53'1918.9
2015-Jun-17 14:29N 34°36' W 075°35'1617.5
2015-Jun-17 13:33N 34°47' W 075°20'138 4.9
2015-Jun-16 09:08N 36°56' W 076°20'57 2.9
2015-Jun-15 13:33N 37°08' W 075°10'1312.9
2015-Jun-15 12:33N 37°18' W 075°01'1413.0
2015-Jun-15 11:30N 37°30' W 074°51'3213.1
2015-Jun-15 09:03N 37°57' W 074°28'713.2
2015-Jun-15 08:31N 38°03' W 074°24'3013.2
2015-Jun-15 06:17N 38°30' W 074°11'1213.4
2015-Jun-15 05:23N 38°42' W 074°06'1313.4
2015-Jun-15 04:27N 38°53' W 074°00'1213.2
2015-Jun-15 03:33N 39°05' W 073°56'1413.4
2015-Jun-15 02:32N 39°18' W 073°55'1313.4
2015-Jun-15 01:33N 39°31' W 073°54'1313.1
2015-Jun-15 00:33N 39°45' W 073°53'1313.0
2015-Jun-14 23:33N 39°58' W 073°51'1312.8
2015-Jun-14 22:33N 40°10' W 073°50'1312.9
2015-Jun-14 21:33N 40°23' W 073°49'1010.4
2015-Jun-14 20:33N 40°31' W 073°58'10 9.9
2015-Jun-14 19:33N 40°39' W 074°05'4 4.2
2015-Jun-14 18:33N 40°39' W 074°11'1 0.5
2015-Jun-14 17:29N 40°39' W 074°11'0 0.0
2015-Jun-14 16:32N 40°39' W 074°11'0 0.0
2015-Jun-14 15:32N 40°39' W 074°11'0 0.0
2015-Jun-14 14:32N 40°39' W 074°11'0 0.0
2015-Jun-14 13:32N 40°39' W 074°11'0 0.0
2015-Jun-14 12:32N 40°39' W 074°11'0 0.0
2015-Jun-14 11:29N 40°39' W 074°11'0 0.0
2015-Jun-14 10:32N 40°39' W 074°11'0 0.0
2015-Jun-14 09:32N 40°39' W 074°11'0 0.0
2015-Jun-14 08:32N 40°39' W 074°11'0 0.0
2015-Jun-14 07:32N 40°39' W 074°11'0 0.0
2015-Jun-14 06:32N 40°39' W 074°11'0 0.0
2015-Jun-14 05:32N 40°39' W 074°11'0 0.0
2015-Jun-14 04:32N 40°39' W 074°11'0 0.0
2015-Jun-14 03:32N 40°39' W 074°11'0 0.0
2015-Jun-14 02:32N 40°39' W 074°11'0 0.0
2015-Jun-14 01:29N 40°39' W 074°11'0 0.0
2015-Jun-14 00:32N 40°39' W 074°11'0 0.0
2015-Jun-13 23:32N 40°39' W 074°11'0 0.0
2015-Jun-13 22:32N 40°39' W 074°11'0 0.0
2015-Jun-13 21:32N 40°39' W 074°11'0 0.1
2015-Jun-13 20:34N 40°39' W 074°11'5 5.5
2015-Jun-13 19:33N 40°39' W 074°04'10 9.8
2015-Jun-13 18:33N 40°30' W 073°58'10 9.8
2015-Jun-13 17:33N 40°25' W 073°47'9 9.1
2015-Jun-13 16:32N 40°15' W 073°45'1512.5
2015-Jun-13 15:17N 40°00' W 073°43'912.3
2015-Jun-13 14:33N 39°51' W 073°42'1312.2
2015-Jun-13 13:31N 39°38' W 073°41'1212.2
2015-Jun-13 12:31N 39°26' W 073°40'1111.4
2015-Jun-13 11:33N 39°15' W 073°40'0 0.5
2015-Jun-13 10:33N 39°15' W 073°40'1 0.7
2015-Jun-13 09:33N 39°14' W 073°40'3 3.0
2015-Jun-13 08:32N 39°11' W 073°40'1312.6
2015-Jun-13 07:30N 38°58' W 073°39'1512.6
2015-Jun-13 06:17N 38°43' W 073°39'912.6
2015-Jun-13 05:33N 38°34' W 073°39'1312.8
2015-Jun-13 04:32N 38°21' W 073°39'1812.5
2015-Jun-13 03:04N 38°02' W 073°38'  

Dump ship's entire track history